sensor_id;sensor_type;location;lat;lon;timestamp;pressure;altitude;pressure_sealevel;temperature;humidity
29385;BME280;16367;48.736;9.218;2023-03-15T00:01:12;-23216.13;;;1.51;100.00
29385;BME280;16367;48.736;9.218;2023-03-15T00:03:17;-23220.44;;;1.65;100.00
29385;BME280;16367;48.736;9.218;2023-03-15T00:05:20;-23217.72;;;1.56;100.00
29385;BME280;16367;48.736;9.218;2023-03-15T00:07:22;-23210.38;;;1.33;100.00
29385;BME280;16367;48.736;9.218;2023-03-15T00:09:26;-23211.03;;;1.35;100.00
29385;BME280;16367;48.736;9.218;2023-03-15T00:11:29;-23211.66;;;1.37;100.00
29385;BME280;16367;48.736;9.218;2023-03-15T00:13:32;-23219.97;;;1.63;100.00
29385;BME280;16367;48.736;9.218;2023-03-15T00:15:35;-23212.47;;;1.39;100.00
29385;BME280;16367;48.736;9.218;2023-03-15T00:17:37;-23215.50;;;1.49;100.00
29385;BME280;16367;48.736;9.218;2023-03-15T00:19:42;-23225.38;;;1.80;100.00
29385;BME280;16367;48.736;9.218;2023-03-15T00:21:44;-23224.13;;;1.76;100.00
29385;BME280;16367;48.736;9.218;2023-03-15T00:23:47;-23211.03;;;1.35;100.00
29385;BME280;16367;48.736;9.218;2023-03-15T00:25:51;-23215.34;;;1.48;100.00
29385;BME280;16367;48.736;9.218;2023-03-15T00:27:54;-23210.38;;;1.33;100.00
29385;BME280;16367;48.736;9.218;2023-03-15T00:29:57;-23211.81;;;1.37;100.00
29385;BME280;16367;48.736;9.218;2023-03-15T00:31:59;-23215.50;;;1.49;100.00
29385;BME280;16367;48.736;9.218;2023-03-15T00:34:02;-23220.94;;;1.66;100.00
29385;BME280;16367;48.736;9.218;2023-03-15T00:36:07;-23211.03;;;1.35;100.00
29385;BME280;16367;48.736;9.218;2023-03-15T00:38:11;-23208.16;;;1.26;100.00
29385;BME280;16367;48.736;9.218;2023-03-15T00:40:15;-23208.31;;;1.26;100.00
29385;BME280;16367;48.736;9.218;2023-03-15T00:42:18;-23210.38;;;1.33;100.00
29385;BME280;16367;48.736;9.218;2023-03-15T00:44:21;-23213.41;;;1.42;100.00
29385;BME280;16367;48.736;9.218;2023-03-15T00:46:23;-23215.81;;;1.50;100.00
29385;BME280;16367;48.736;9.218;2023-03-15T00:48:26;-23218.69;;;1.59;100.00
29385;BME280;16367;48.736;9.218;2023-03-15T00:50:29;-23209.13;;;1.29;100.00
29385;BME280;16367;48.736;9.218;2023-03-15T00:52:34;-23208.63;;;1.27;100.00
29385;BME280;16367;48.736;9.218;2023-03-15T00:54:37;-23210.69;;;1.34;100.00
29385;BME280;16367;48.736;9.218;2023-03-15T00:56:40;-23211.81;;;1.37;100.00
29385;BME280;16367;48.736;9.218;2023-03-15T00:58:43;-23214.84;;;1.47;100.00
29385;BME280;16367;48.736;9.218;2023-03-15T01:00:46;-23214.84;;;1.47;100.00
29385;BME280;16367;48.736;9.218;2023-03-15T01:02:48;-23220.44;;;1.65;100.00
29385;BME280;16367;48.736;9.218;2023-03-15T01:04:52;-23221.41;;;1.68;100.00
29385;BME280;16367;48.736;9.218;2023-03-15T01:06:54;-23222.03;;;1.70;100.00
29385;BME280;16367;48.736;9.218;2023-03-15T01:08:59;-23218.06;;;1.57;100.00
29385;BME280;16367;48.736;9.218;2023-03-15T01:11:03;-23223.47;;;1.74;100.00
29385;BME280;16367;48.736;9.218;2023-03-15T01:13:06;-23219.66;;;1.62;100.00
29385;BME280;16367;48.736;9.218;2023-03-15T01:15:10;-23215.50;;;1.49;100.00
29385;BME280;16367;48.736;9.218;2023-03-15T01:17:14;-23222.03;;;1.70;100.00
29385;BME280;16367;48.736;9.218;2023-03-15T01:19:17;-23220.44;;;1.65;100.00
29385;BME280;16367;48.736;9.218;2023-03-15T01:21:20;-23218.84;;;1.60;100.00
29385;BME280;16367;48.736;9.218;2023-03-15T01:23:23;-23226.03;;;1.82;100.00
29385;BME280;16367;48.736;9.218;2023-03-15T01:25:27;-23221.41;;;1.68;100.00
29385;BME280;16367;48.736;9.218;2023-03-15T01:27:30;-23221.09;;;1.67;100.00
29385;BME280;16367;48.736;9.218;2023-03-15T01:29:33;-23222.03;;;1.70;100.00
29385;BME280;16367;48.736;9.218;2023-03-15T01:31:35;-23211.81;;;1.37;100.00
29385;BME280;16367;48.736;9.218;2023-03-15T01:33:38;-23212.78;;;1.40;100.00
29385;BME280;16367;48.736;9.218;2023-03-15T01:35:41;-23214.53;;;1.46;100.00
29385;BME280;16367;48.736;9.218;2023-03-15T01:37:43;-23216.44;;;1.52;100.00
29385;BME280;16367;48.736;9.218;2023-03-15T01:39:47;-23216.44;;;1.52;100.00
29385;BME280;16367;48.736;9.218;2023-03-15T01:41:51;-23210.38;;;1.33;100.00
29385;BME280;16367;48.736;9.218;2023-03-15T01:43:54;-23206.41;;;1.20;100.00
29385;BME280;16367;48.736;9.218;2023-03-15T01:46:16;-23202.88;;;1.09;100.00
29385;BME280;16367;48.736;9.218;2023-03-15T01:48:22;-23205.75;;;1.18;100.00
29385;BME280;16367;48.736;9.218;2023-03-15T01:50:26;-23205.59;;;1.18;100.00
29385;BME280;16367;48.736;9.218;2023-03-15T01:52:31;-23209.44;;;1.30;100.00
29385;BME280;16367;48.736;9.218;2023-03-15T01:54:38;-23210.06;;;1.32;100.00
29385;BME280;16367;48.736;9.218;2023-03-15T01:56:45;-23207.03;;;1.22;100.00
29385;BME280;16367;48.736;9.218;2023-03-15T01:58:51;-23208.78;;;1.28;100.00
29385;BME280;16367;48.736;9.218;2023-03-15T02:00:54;-23210.56;;;1.33;100.00
29385;BME280;16367;48.736;9.218;2023-03-15T02:02:59;-23209.75;;;1.31;100.00
29385;BME280;16367;48.736;9.218;2023-03-15T02:05:08;-23206.72;;;1.21;100.00
29385;BME280;16367;48.736;9.218;2023-03-15T02:07:15;-23208.16;;;1.26;100.00
29385;BME280;16367;48.736;9.218;2023-03-15T02:09:19;-23207.34;;;1.23;100.00
29385;BME280;16367;48.736;9.218;2023-03-15T02:11:24;-23209.13;;;1.29;100.00
29385;BME280;16367;48.736;9.218;2023-03-15T02:13:29;-23207.19;;;1.23;100.00
29385;BME280;16367;48.736;9.218;2023-03-15T02:15:33;-23202.09;;;1.07;100.00
29385;BME280;16367;48.736;9.218;2023-03-15T02:17:38;-23202.25;;;1.07;100.00
29385;BME280;16367;48.736;9.218;2023-03-15T02:19:48;-23204.63;;;1.15;100.00
29385;BME280;16367;48.736;9.218;2023-03-15T02:22:00;-23204.63;;;1.15;100.00
29385;BME280;16367;48.736;9.218;2023-03-15T02:24:21;-23202.09;;;1.07;100.00
29385;BME280;16367;48.736;9.218;2023-03-15T02:26:29;-23204.63;;;1.15;100.00
29385;BME280;16367;48.736;9.218;2023-03-15T02:28:35;-23200.81;;;1.03;100.00
29385;BME280;16367;48.736;9.218;2023-03-15T02:30:39;-23204.97;;;1.16;100.00
29385;BME280;16367;48.736;9.218;2023-03-15T02:32:42;-23203.19;;;1.10;100.00
29385;BME280;16367;48.736;9.218;2023-03-15T02:34:45;-23203.03;;;1.10;100.00
29385;BME280;16367;48.736;9.218;2023-03-15T02:36:47;-23200.66;;;1.02;100.00
29385;BME280;16367;48.736;9.218;2023-03-15T02:38:51;-23199.53;;;0.99;100.00
29385;BME280;16367;48.736;9.218;2023-03-15T02:40:54;-23198.88;;;0.97;100.00
29385;BME280;16367;48.736;9.218;2023-03-15T02:42:59;-23199.84;;;1.00;100.00
29385;BME280;16367;48.736;9.218;2023-03-15T02:45:06;-23195.53;;;0.86;100.00
29385;BME280;16367;48.736;9.218;2023-03-15T02:47:13;-23196.03;;;0.88;100.00
29385;BME280;16367;48.736;9.218;2023-03-15T02:49:17;-23195.69;;;0.87;100.00
29385;BME280;16367;48.736;9.218;2023-03-15T02:51:23;-23190.75;;;0.71;100.00
29385;BME280;16367;48.736;9.218;2023-03-15T02:53:28;-23191.53;;;0.73;100.00
29385;BME280;16367;48.736;9.218;2023-03-15T02:55:31;-23191.38;;;0.73;100.00
29385;BME280;16367;48.736;9.218;2023-03-15T02:57:34;-23189.31;;;0.66;100.00
29385;BME280;16367;48.736;9.218;2023-03-15T02:59:37;-23188.03;;;0.62;100.00
29385;BME280;16367;48.736;9.218;2023-03-15T03:01:41;-23186.75;;;0.58;100.00
29385;BME280;16367;48.736;9.218;2023-03-15T03:03:46;-23186.91;;;0.59;100.00
29385;BME280;16367;48.736;9.218;2023-03-15T03:05:49;-23186.75;;;0.58;100.00
29385;BME280;16367;48.736;9.218;2023-03-15T03:07:51;-23190.91;;;0.71;100.00
29385;BME280;16367;48.736;9.218;2023-03-15T03:09:54;-23185.63;;;0.55;100.00
29385;BME280;16367;48.736;9.218;2023-03-15T03:11:57;-23186.44;;;0.57;100.00
29385;BME280;16367;48.736;9.218;2023-03-15T03:13:59;-23185.16;;;0.53;100.00
29385;BME280;16367;48.736;9.218;2023-03-15T03:16:02;-23185.97;;;0.56;100.00
29385;BME280;16367;48.736;9.218;2023-03-15T03:18:06;-23186.91;;;0.59;100.00
29385;BME280;16367;48.736;9.218;2023-03-15T03:20:11;-23187.41;;;0.60;100.00
29385;BME280;16367;48.736;9.218;2023-03-15T03:22:14;-23184.53;;;0.51;100.00
29385;BME280;16367;48.736;9.218;2023-03-15T03:24:16;-23188.03;;;0.62;100.00
29385;BME280;16367;48.736;9.218;2023-03-15T03:26:19;-23188.66;;;0.64;100.00
29385;BME280;16367;48.736;9.218;2023-03-15T03:28:23;-23184.34;;;0.51;100.00
29385;BME280;16367;48.736;9.218;2023-03-15T03:30:26;-23186.75;;;0.58;100.00
29385;BME280;16367;48.736;9.218;2023-03-15T03:32:29;-23186.44;;;0.57;100.00
29385;BME280;16367;48.736;9.218;2023-03-15T03:34:33;-23185.16;;;0.53;100.00
29385;BME280;16367;48.736;9.218;2023-03-15T03:36:36;-23181.66;;;0.42;100.00
29385;BME280;16367;48.736;9.218;2023-03-15T03:38:39;-23180.38;;;0.38;100.00
29385;BME280;16367;48.736;9.218;2023-03-15T03:40:44;-23181.47;;;0.42;100.00
29385;BME280;16367;48.736;9.218;2023-03-15T03:42:47;-23182.59;;;0.45;100.00
29385;BME280;16367;48.736;9.218;2023-03-15T03:44:49;-23182.75;;;0.46;100.00
29385;BME280;16367;48.736;9.218;2023-03-15T03:46:54;-23179.41;;;0.35;100.00
29385;BME280;16367;48.736;9.218;2023-03-15T03:48:57;-23177.81;;;0.30;100.00
29385;BME280;16367;48.736;9.218;2023-03-15T03:51:01;-23177.16;;;0.28;100.00
29385;BME280;16367;48.736;9.218;2023-03-15T03:53:04;-23177.31;;;0.29;100.00
29385;BME280;16367;48.736;9.218;2023-03-15T03:55:07;-23180.19;;;0.38;100.00
29385;BME280;16367;48.736;9.218;2023-03-15T03:57:10;-23181.66;;;0.42;100.00
29385;BME280;16367;48.736;9.218;2023-03-15T03:59:13;-23177.66;;;0.30;100.00
29385;BME280;16367;48.736;9.218;2023-03-15T04:01:16;-23178.94;;;0.34;100.00
29385;BME280;16367;48.736;9.218;2023-03-15T04:03:18;-23175.56;;;0.23;100.00
29385;BME280;16367;48.736;9.218;2023-03-15T04:05:27;-23174.63;;;0.20;100.00
29385;BME280;16367;48.736;9.218;2023-03-15T04:07:31;-23175.41;;;0.23;100.00
29385;BME280;16367;48.736;9.218;2023-03-15T04:09:34;-23175.72;;;0.24;100.00
29385;BME280;16367;48.736;9.218;2023-03-15T04:11:38;-23177.81;;;0.30;100.00
29385;BME280;16367;48.736;9.218;2023-03-15T04:13:43;-23174.28;;;0.19;100.00
29385;BME280;16367;48.736;9.218;2023-03-15T04:15:46;-23173.34;;;0.16;100.00
29385;BME280;16367;48.736;9.218;2023-03-15T04:17:50;-23172.69;;;0.14;100.00
29385;BME280;16367;48.736;9.218;2023-03-15T04:19:56;-23174.28;;;0.19;100.00
29385;BME280;16367;48.736;9.218;2023-03-15T04:21:59;-23171.91;;;0.12;100.00
29385;BME280;16367;48.736;9.218;2023-03-15T04:24:08;-23172.38;;;0.13;100.00
29385;BME280;16367;48.736;9.218;2023-03-15T04:26:11;-23173.34;;;0.16;100.00
29385;BME280;16367;48.736;9.218;2023-03-15T04:28:15;-23171.41;;;0.10;100.00
29385;BME280;16367;48.736;9.218;2023-03-15T04:30:17;-23171.41;;;0.10;100.00
29385;BME280;16367;48.736;9.218;2023-03-15T04:32:20;-23168.88;;;0.02;100.00
29385;BME280;16367;48.736;9.218;2023-03-15T04:34:23;-23168.22;;;0.00;100.00
29385;BME280;16367;48.736;9.218;2023-03-15T04:36:28;-23168.53;;;0.01;100.00
29385;BME280;16367;48.736;9.218;2023-03-15T04:38:31;-23168.38;;;0.00;100.00
29385;BME280;16367;48.736;9.218;2023-03-15T04:40:37;-23168.69;;;0.02;100.00
29385;BME280;16367;48.736;9.218;2023-03-15T04:42:39;-23167.91;;;-0.01;100.00
29385;BME280;16367;48.736;9.218;2023-03-15T04:44:42;-23168.22;;;0.00;100.00
29385;BME280;16367;48.736;9.218;2023-03-15T04:46:45;-23168.88;;;0.02;100.00
29385;BME280;16367;48.736;9.218;2023-03-15T04:48:48;-23169.50;;;0.04;100.00
29385;BME280;16367;48.736;9.218;2023-03-15T04:50:51;-23167.91;;;-0.01;100.00
29385;BME280;16367;48.736;9.218;2023-03-15T04:52:54;-23168.88;;;0.02;100.00
29385;BME280;16367;48.736;9.218;2023-03-15T04:54:58;-23166.16;;;-0.07;100.00
29385;BME280;16367;48.736;9.218;2023-03-15T04:57:02;-23163.91;;;-0.14;100.00
29385;BME280;16367;48.736;9.218;2023-03-15T04:59:05;-23165.03;;;-0.10;100.00
29385;BME280;16367;48.736;9.218;2023-03-15T05:01:08;-23164.38;;;-0.12;100.00
29385;BME280;16367;48.736;9.218;2023-03-15T05:03:13;-23163.44;;;-0.15;100.00
29385;BME280;16367;48.736;9.218;2023-03-15T05:05:16;-23164.06;;;-0.13;100.00
29385;BME280;16367;48.736;9.218;2023-03-15T05:07:19;-23165.03;;;-0.10;100.00
29385;BME280;16367;48.736;9.218;2023-03-15T05:09:22;-23164.06;;;-0.13;100.00
29385;BME280;16367;48.736;9.218;2023-03-15T05:11:24;-23165.03;;;-0.10;100.00
29385;BME280;16367;48.736;9.218;2023-03-15T05:13:29;-23162.16;;;-0.19;100.00
29385;BME280;16367;48.736;9.218;2023-03-15T05:15:31;-23162.47;;;-0.18;100.00
29385;BME280;16367;48.736;9.218;2023-03-15T05:17:34;-23163.59;;;-0.15;100.00
29385;BME280;16367;48.736;9.218;2023-03-15T05:19:37;-23162.16;;;-0.19;100.00
29385;BME280;16367;48.736;9.218;2023-03-15T05:21:40;-23166.00;;;-0.07;100.00
29385;BME280;16367;48.736;9.218;2023-03-15T05:23:42;-23161.66;;;-0.21;100.00
29385;BME280;16367;48.736;9.218;2023-03-15T05:25:49;-23163.75;;;-0.14;100.00
29385;BME280;16367;48.736;9.218;2023-03-15T05:27:54;-23165.66;;;-0.08;100.00
29385;BME280;16367;48.736;9.218;2023-03-15T05:29:58;-23160.56;;;-0.24;100.00
29385;BME280;16367;48.736;9.218;2023-03-15T05:32:04;-23160.41;;;-0.25;100.00
29385;BME280;16367;48.736;9.218;2023-03-15T05:34:07;-23158.47;;;-0.31;100.00
29385;BME280;16367;48.736;9.218;2023-03-15T05:36:09;-23158.63;;;-0.30;100.00
29385;BME280;16367;48.736;9.218;2023-03-15T05:38:14;-23161.66;;;-0.21;100.00
29385;BME280;16367;48.736;9.218;2023-03-15T05:40:17;-23164.38;;;-0.12;100.00
29385;BME280;16367;48.736;9.218;2023-03-15T05:42:20;-23164.06;;;-0.13;100.00
29385;BME280;16367;48.736;9.218;2023-03-15T05:44:26;-23165.34;;;-0.09;100.00
29385;BME280;16367;48.736;9.218;2023-03-15T05:46:30;-23166.00;;;-0.07;100.00
29385;BME280;16367;48.736;9.218;2023-03-15T05:48:33;-23167.59;;;-0.02;100.00
29385;BME280;16367;48.736;9.218;2023-03-15T05:50:35;-23168.06;;;-0.01;100.00
29385;BME280;16367;48.736;9.218;2023-03-15T05:52:38;-23165.66;;;-0.08;100.00
29385;BME280;16367;48.736;9.218;2023-03-15T05:54:41;-23168.88;;;0.02;100.00
29385;BME280;16367;48.736;9.218;2023-03-15T05:56:43;-23172.06;;;0.12;100.00
29385;BME280;16367;48.736;9.218;2023-03-15T05:58:46;-23174.13;;;0.19;100.00
29385;BME280;16367;48.736;9.218;2023-03-15T06:00:48;-23176.53;;;0.26;100.00
29385;BME280;16367;48.736;9.218;2023-03-15T06:02:53;-23177.50;;;0.29;100.00
29385;BME280;16367;48.736;9.218;2023-03-15T06:04:55;-23177.16;;;0.28;100.00
29385;BME280;16367;48.736;9.218;2023-03-15T06:06:58;-23177.97;;;0.31;100.00
29385;BME280;16367;48.736;9.218;2023-03-15T06:09:01;-23172.84;;;0.15;100.00
29385;BME280;16367;48.736;9.218;2023-03-15T06:11:03;-23173.97;;;0.18;100.00
29385;BME280;16367;48.736;9.218;2023-03-15T06:13:06;-23174.28;;;0.19;100.00
29385;BME280;16367;48.736;9.218;2023-03-15T06:15:09;-23174.28;;;0.19;100.00
29385;BME280;16367;48.736;9.218;2023-03-15T06:17:12;-23173.66;;;0.17;100.00
29385;BME280;16367;48.736;9.218;2023-03-15T06:19:16;-23175.09;;;0.22;100.00
29385;BME280;16367;48.736;9.218;2023-03-15T06:21:19;-23175.09;;;0.22;100.00
29385;BME280;16367;48.736;9.218;2023-03-15T06:23:21;-23172.69;;;0.14;100.00
29385;BME280;16367;48.736;9.218;2023-03-15T06:25:24;-23176.84;;;0.27;100.00
29385;BME280;16367;48.736;9.218;2023-03-15T06:27:27;-23178.44;;;0.32;100.00
29385;BME280;16367;48.736;9.218;2023-03-15T06:29:29;-23174.78;;;0.21;100.00
29385;BME280;16367;48.736;9.218;2023-03-15T06:31:32;-23177.31;;;0.29;100.00
29385;BME280;16367;48.736;9.218;2023-03-15T06:33:35;-23180.06;;;0.37;100.00
29385;BME280;16367;48.736;9.218;2023-03-15T06:35:39;-23183.09;;;0.47;100.00
29385;BME280;16367;48.736;9.218;2023-03-15T06:37:42;-23185.16;;;0.53;100.00
29385;BME280;16367;48.736;9.218;2023-03-15T06:39:45;-23186.75;;;0.58;100.00
29385;BME280;16367;48.736;9.218;2023-03-15T06:41:47;-23189.94;;;0.68;100.00
29385;BME280;16367;48.736;9.218;2023-03-15T06:43:53;-23190.91;;;0.71;100.00
29385;BME280;16367;48.736;9.218;2023-03-15T06:45:56;-23190.91;;;0.71;100.00
29385;BME280;16367;48.736;9.218;2023-03-15T06:48:00;-23191.53;;;0.73;100.00
29385;BME280;16367;48.736;9.218;2023-03-15T06:50:03;-23193.16;;;0.79;100.00
29385;BME280;16367;48.736;9.218;2023-03-15T06:52:08;-23193.78;;;0.81;100.00
29385;BME280;16367;48.736;9.218;2023-03-15T06:54:10;-23194.59;;;0.83;100.00
29385;BME280;16367;48.736;9.218;2023-03-15T06:56:13;-23195.69;;;0.87;100.00
29385;BME280;16367;48.736;9.218;2023-03-15T06:58:16;-23199.69;;;0.99;100.00
29385;BME280;16367;48.736;9.218;2023-03-15T07:00:19;-23198.72;;;0.96;100.00
29385;BME280;16367;48.736;9.218;2023-03-15T07:02:23;-23203.53;;;1.11;100.00
29385;BME280;16367;48.736;9.218;2023-03-15T07:04:26;-23203.53;;;1.11;100.00
29385;BME280;16367;48.736;9.218;2023-03-15T07:06:28;-23207.84;;;1.25;100.00
29385;BME280;16367;48.736;9.218;2023-03-15T07:08:33;-23208.47;;;1.27;100.00
29385;BME280;16367;48.736;9.218;2023-03-15T07:10:35;-23208.94;;;1.28;100.00
29385;BME280;16367;48.736;9.218;2023-03-15T07:12:38;-23216.28;;;1.51;100.00
29385;BME280;16367;48.736;9.218;2023-03-15T07:14:41;-23218.06;;;1.57;100.00
29385;BME280;16367;48.736;9.218;2023-03-15T07:16:43;-23224.75;;;1.78;100.00
29385;BME280;16367;48.736;9.218;2023-03-15T07:18:48;-23220.28;;;1.64;100.00
29385;BME280;16367;48.736;9.218;2023-03-15T07:20:55;-23222.50;;;1.71;99.40
29385;BME280;16367;48.736;9.218;2023-03-15T07:22:57;-23233.38;;;2.05;98.68
29385;BME280;16367;48.736;9.218;2023-03-15T07:25:01;-23258.41;;;2.84;94.86
29385;BME280;16367;48.736;9.218;2023-03-15T07:27:06;-23254.59;;;2.72;91.76
29385;BME280;16367;48.736;9.218;2023-03-15T07:29:15;-23266.69;;;3.11;90.70
29385;BME280;16367;48.736;9.218;2023-03-15T07:31:18;-23276.91;;;3.43;88.00
29385;BME280;16367;48.736;9.218;2023-03-15T07:33:22;-23282.63;;;3.61;85.53
29385;BME280;16367;48.736;9.218;2023-03-15T07:35:25;-23268.13;;;3.15;85.23
29385;BME280;16367;48.736;9.218;2023-03-15T07:37:27;-23287.56;;;3.76;84.05
29385;BME280;16367;48.736;9.218;2023-03-15T07:39:30;-23296.19;;;4.04;82.24
29385;BME280;16367;48.736;9.218;2023-03-15T07:41:35;-23280.56;;;3.54;83.77
29385;BME280;16367;48.736;9.218;2023-03-15T07:43:37;-23294.59;;;3.99;83.02
29385;BME280;16367;48.736;9.218;2023-03-15T07:45:41;-23275.00;;;3.37;84.46
29385;BME280;16367;48.736;9.218;2023-03-15T07:47:44;-23268.78;;;3.17;86.08
29385;BME280;16367;48.736;9.218;2023-03-15T07:49:46;-23290.13;;;3.85;86.08
29385;BME280;16367;48.736;9.218;2023-03-15T07:51:49;-23307.66;;;4.40;83.09
29385;BME280;16367;48.736;9.218;2023-03-15T07:53:52;-23309.25;;;4.45;81.68
29385;BME280;16367;48.736;9.218;2023-03-15T07:55:55;-23319.09;;;4.76;79.41
29385;BME280;16367;48.736;9.218;2023-03-15T07:58:00;-23283.44;;;3.63;82.56
29385;BME280;16367;48.736;9.218;2023-03-15T08:00:04;-23267.81;;;3.14;84.10
29385;BME280;16367;48.736;9.218;2023-03-15T08:02:09;-23266.69;;;3.11;84.80
29385;BME280;16367;48.736;9.218;2023-03-15T08:04:12;-23269.25;;;3.19;84.51
29385;BME280;16367;48.736;9.218;2023-03-15T08:06:15;-23274.50;;;3.35;84.32
29385;BME280;16367;48.736;9.218;2023-03-15T08:08:17;-23301.59;;;4.21;82.81
29385;BME280;16367;48.736;9.218;2023-03-15T08:10:20;-23288.53;;;3.79;82.03
29385;BME280;16367;48.736;9.218;2023-03-15T08:12:23;-23273.22;;;3.31;81.37
29385;BME280;16367;48.736;9.218;2023-03-15T08:14:27;-23264.94;;;3.05;86.21
29385;BME280;16367;48.736;9.218;2023-03-15T08:16:31;-23276.09;;;3.40;86.30
29385;BME280;16367;48.736;9.218;2023-03-15T08:18:34;-23279.94;;;3.52;86.28
29385;BME280;16367;48.736;9.218;2023-03-15T08:20:37;-23277.53;;;3.45;83.83
29385;BME280;16367;48.736;9.218;2023-03-15T08:22:40;-23296.19;;;4.04;84.54
29385;BME280;16367;48.736;9.218;2023-03-15T08:24:44;-23284.88;;;3.68;80.99
29385;BME280;16367;48.736;9.218;2023-03-15T08:26:47;-23317.19;;;4.70;82.11
29385;BME280;16367;48.736;9.218;2023-03-15T08:28:51;-23322.13;;;4.86;78.50
29385;BME280;16367;48.736;9.218;2023-03-15T08:30:55;-23305.75;;;4.34;80.94
29385;BME280;16367;48.736;9.218;2023-03-15T08:32:58;-23285.97;;;3.71;82.47
29385;BME280;16367;48.736;9.218;2023-03-15T08:35:01;-23287.56;;;3.76;83.08
29385;BME280;16367;48.736;9.218;2023-03-15T08:37:03;-23319.09;;;4.76;81.03
29385;BME280;16367;48.736;9.218;2023-03-15T08:39:06;-23297.94;;;4.09;82.05
29385;BME280;16367;48.736;9.218;2023-03-15T08:41:09;-23329.63;;;5.09;80.27
29385;BME280;16367;48.736;9.218;2023-03-15T08:43:12;-23340.91;;;5.45;76.27
29385;BME280;16367;48.736;9.218;2023-03-15T08:45:14;-23351.59;;;5.79;76.67
29385;BME280;16367;48.736;9.218;2023-03-15T08:47:18;-23366.53;;;6.26;74.12
29385;BME280;16367;48.736;9.218;2023-03-15T08:49:21;-23356.66;;;5.95;72.35
29385;BME280;16367;48.736;9.218;2023-03-15T08:51:24;-23356.19;;;5.93;72.66
29385;BME280;16367;48.736;9.218;2023-03-15T08:53:27;-23354.75;;;5.89;69.68
29385;BME280;16367;48.736;9.218;2023-03-15T08:55:29;-23404.69;;;7.47;66.29
29385;BME280;16367;48.736;9.218;2023-03-15T08:57:33;-23352.84;;;5.83;66.14
29385;BME280;16367;48.736;9.218;2023-03-15T08:59:35;-23359.22;;;6.03;68.15
29385;BME280;16367;48.736;9.218;2023-03-15T09:01:38;-23395.94;;;7.19;63.70
29385;BME280;16367;48.736;9.218;2023-03-15T09:03:42;-23359.69;;;6.05;66.98
29385;BME280;16367;48.736;9.218;2023-03-15T09:05:45;-23323.91;;;4.91;70.27
29385;BME280;16367;48.736;9.218;2023-03-15T09:07:48;-23324.69;;;4.94;68.49
29385;BME280;16367;48.736;9.218;2023-03-15T09:09:53;-23307.97;;;4.41;68.88
29385;BME280;16367;48.736;9.218;2023-03-15T09:11:55;-23316.41;;;4.68;70.58
29385;BME280;16367;48.736;9.218;2023-03-15T09:13:58;-23327.06;;;5.01;69.83
29385;BME280;16367;48.736;9.218;2023-03-15T09:16:01;-23328.03;;;5.04;68.95
29385;BME280;16367;48.736;9.218;2023-03-15T09:18:04;-23328.97;;;5.07;68.68
29385;BME280;16367;48.736;9.218;2023-03-15T09:20:11;-23341.41;;;5.47;69.81
29385;BME280;16367;48.736;9.218;2023-03-15T09:22:16;-23326.44;;;4.99;69.70
29385;BME280;16367;48.736;9.218;2023-03-15T09:24:38;-23340.13;;;5.43;70.06
29385;BME280;16367;48.736;9.218;2023-03-15T09:26:41;-23335.03;;;5.26;69.86
29385;BME280;16367;48.736;9.218;2023-03-15T09:28:44;-23328.97;;;5.07;70.84
29385;BME280;16367;48.736;9.218;2023-03-15T09:30:46;-23331.53;;;5.15;70.77
29385;BME280;16367;48.736;9.218;2023-03-15T09:32:49;-23312.91;;;4.57;72.14
29385;BME280;16367;48.736;9.218;2023-03-15T09:34:52;-23313.22;;;4.58;72.21
29385;BME280;16367;48.736;9.218;2023-03-15T09:36:56;-23312.25;;;4.54;72.36
29385;BME280;16367;48.736;9.218;2023-03-15T09:38:59;-23305.09;;;4.32;71.65
29385;BME280;16367;48.736;9.218;2023-03-15T09:41:03;-23297.28;;;4.07;71.57
29385;BME280;16367;48.736;9.218;2023-03-15T09:43:18;-23296.19;;;4.04;72.10
29385;BME280;16367;48.736;9.218;2023-03-15T09:45:40;-23298.25;;;4.10;71.21
29385;BME280;16367;48.736;9.218;2023-03-15T09:47:51;-23301.13;;;4.19;70.90
29385;BME280;16367;48.736;9.218;2023-03-15T09:50:02;-23309.88;;;4.47;70.83
29385;BME280;16367;48.736;9.218;2023-03-15T09:52:17;-23317.53;;;4.71;70.50
29385;BME280;16367;48.736;9.218;2023-03-15T09:54:26;-23322.31;;;4.86;70.83
29385;BME280;16367;48.736;9.218;2023-03-15T09:56:34;-23306.84;;;4.37;70.64
29385;BME280;16367;48.736;9.218;2023-03-15T09:58:38;-23297.94;;;4.09;73.19
29385;BME280;16367;48.736;9.218;2023-03-15T10:00:44;-23298.09;;;4.10;74.17
29385;BME280;16367;48.736;9.218;2023-03-15T10:02:54;-23304.16;;;4.29;74.25
29385;BME280;16367;48.736;9.218;2023-03-15T10:05:03;-23304.16;;;4.29;74.04
29385;BME280;16367;48.736;9.218;2023-03-15T10:07:13;-23305.75;;;4.34;74.26
29385;BME280;16367;48.736;9.218;2023-03-15T10:09:20;-23303.81;;;4.28;74.29
29385;BME280;16367;48.736;9.218;2023-03-15T10:11:26;-23297.63;;;4.08;74.55
29385;BME280;16367;48.736;9.218;2023-03-15T10:13:47;-23301.91;;;4.22;74.63
29385;BME280;16367;48.736;9.218;2023-03-15T10:16:01;-23308.75;;;4.43;74.04
29385;BME280;16367;48.736;9.218;2023-03-15T10:18:24;-23311.47;;;4.52;72.52
29385;BME280;16367;48.736;9.218;2023-03-15T10:20:33;-23309.88;;;4.47;73.96
29385;BME280;16367;48.736;9.218;2023-03-15T10:22:44;-23307.31;;;4.39;72.74
29385;BME280;16367;48.736;9.218;2023-03-15T10:24:51;-23315.94;;;4.66;73.01
29385;BME280;16367;48.736;9.218;2023-03-15T10:26:58;-23326.44;;;4.99;72.26
29385;BME280;16367;48.736;9.218;2023-03-15T10:29:09;-23325.63;;;4.97;71.75
29385;BME280;16367;48.736;9.218;2023-03-15T10:31:15;-23316.56;;;4.68;71.37
29385;BME280;16367;48.736;9.218;2023-03-15T10:33:31;-23321.19;;;4.83;71.24
29385;BME280;16367;48.736;9.218;2023-03-15T10:35:36;-23316.25;;;4.67;70.21
29385;BME280;16367;48.736;9.218;2023-03-15T10:37:41;-23321.34;;;4.83;69.37
29385;BME280;16367;48.736;9.218;2023-03-15T10:39:45;-23316.25;;;4.67;68.91
29385;BME280;16367;48.736;9.218;2023-03-15T10:41:49;-23320.88;;;4.82;67.81
29385;BME280;16367;48.736;9.218;2023-03-15T10:43:57;-23332.47;;;5.18;67.25
29385;BME280;16367;48.736;9.218;2023-03-15T10:46:01;-23328.81;;;5.07;67.81
29385;BME280;16367;48.736;9.218;2023-03-15T10:48:06;-23327.38;;;5.02;67.93
29385;BME280;16367;48.736;9.218;2023-03-15T10:50:16;-23329.94;;;5.10;67.57
29385;BME280;16367;48.736;9.218;2023-03-15T10:52:33;-23348.09;;;5.68;66.05